sensor_id;sensor_type;location;lat;lon;timestamp;pressure;altitude;pressure_sealevel;temperature;humidity
11347;BME280;5728;42.722;23.258;2024-01-30T00:02:01;96719.66;;;1.11;72.39
11347;BME280;5728;42.722;23.258;2024-01-30T00:04:28;96719.09;;;1.16;74.38
11347;BME280;5728;42.722;23.258;2024-01-30T00:06:56;96718.47;;;1.04;73.97
11347;BME280;5728;42.722;23.258;2024-01-30T00:09:23;96728.75;;;0.57;73.30
11347;BME280;5728;42.722;23.258;2024-01-30T00:11:50;96712.25;;;1.15;71.51
11347;BME280;5728;42.722;23.258;2024-01-30T00:14:17;96722.81;;;1.39;69.34
11347;BME280;5728;42.722;23.258;2024-01-30T00:16:44;96721.88;;;1.21;71.05
11347;BME280;5728;42.722;23.258;2024-01-30T00:19:11;96728.97;;;1.43;70.37
11347;BME280;5728;42.722;23.258;2024-01-30T00:21:38;96731.13;;;1.35;71.05
11347;BME280;5728;42.722;23.258;2024-01-30T00:24:06;96726.34;;;1.25;72.46
11347;BME280;5728;42.722;23.258;2024-01-30T00:26:33;96726.69;;;1.15;72.31
11347;BME280;5728;42.722;23.258;2024-01-30T00:29:00;96723.81;;;1.25;70.83
11347;BME280;5728;42.722;23.258;2024-01-30T00:31:27;96727.38;;;1.28;69.74
11347;BME280;5728;42.722;23.258;2024-01-30T00:33:55;96723.31;;;1.16;69.94
11347;BME280;5728;42.722;23.258;2024-01-30T00:36:22;96721.88;;;1.21;69.14
11347;BME280;5728;42.722;23.258;2024-01-30T00:38:49;96725.75;;;1.13;70.58
11347;BME280;5728;42.722;23.258;2024-01-30T00:41:18;96718.06;;;1.13;69.98
11347;BME280;5728;42.722;23.258;2024-01-30T00:43:45;96727.88;;;1.21;70.17
11347;BME280;5728;42.722;23.258;2024-01-30T00:46:12;96723.56;;;1.04;70.79
11347;BME280;5728;42.722;23.258;2024-01-30T00:48:39;96718.22;;;1.16;71.77
11347;BME280;5728;42.722;23.258;2024-01-30T00:51:07;96720.69;;;1.31;70.42
11347;BME280;5728;42.722;23.258;2024-01-30T00:53:34;96724.75;;;1.43;71.08
11347;BME280;5728;42.722;23.258;2024-01-30T00:56:01;96723.28;;;1.48;68.39
11347;BME280;5728;42.722;23.258;2024-01-30T00:58:30;96722.56;;;1.51;68.59
11347;BME280;5728;42.722;23.258;2024-01-30T01:00:57;96725.31;;;1.38;70.27
11347;BME280;5728;42.722;23.258;2024-01-30T01:03:24;96723.84;;;0.93;71.59
11347;BME280;5728;42.722;23.258;2024-01-30T01:05:51;96723.25;;;0.66;72.76
11347;BME280;5728;42.722;23.258;2024-01-30T01:08:18;96719.34;;;0.73;71.95
11347;BME280;5728;42.722;23.258;2024-01-30T01:10:45;96716.50;;;0.83;72.02
11347;BME280;5728;42.722;23.258;2024-01-30T01:13:12;96718.34;;;0.38;71.96
11347;BME280;5728;42.722;23.258;2024-01-30T01:15:41;96718.44;;;0.40;71.89
11347;BME280;5728;42.722;23.258;2024-01-30T01:18:07;96713.88;;;0.50;71.85
11347;BME280;5728;42.722;23.258;2024-01-30T01:20:34;96710.81;;;0.25;72.80
11347;BME280;5728;42.722;23.258;2024-01-30T01:23:01;96715.47;;;0.02;73.56
11347;BME280;5728;42.722;23.258;2024-01-30T01:25:28;96733.38;;;0.03;74.13
11347;BME280;5728;42.722;23.258;2024-01-30T01:27:55;96721.91;;;-0.05;73.87
11347;BME280;5728;42.722;23.258;2024-01-30T01:30:22;96716.94;;;-0.02;73.62
11347;BME280;5728;42.722;23.258;2024-01-30T01:32:52;96722.69;;;-0.06;73.30
11347;BME280;5728;42.722;23.258;2024-01-30T01:35:22;96715.41;;;0.00;73.58
11347;BME280;5728;42.722;23.258;2024-01-30T01:37:50;96719.63;;;-0.15;74.06
11347;BME280;5728;42.722;23.258;2024-01-30T01:40:22;96717.19;;;-0.28;74.12
11347;BME280;5728;42.722;23.258;2024-01-30T01:42:49;96719.25;;;-0.07;74.44
11347;BME280;5728;42.722;23.258;2024-01-30T01:45:16;96723.69;;;-0.19;74.45
11347;BME280;5728;42.722;23.258;2024-01-30T01:47:44;96728.25;;;-0.13;75.41
11347;BME280;5728;42.722;23.258;2024-01-30T01:50:14;96719.09;;;-0.24;74.30
11347;BME280;5728;42.722;23.258;2024-01-30T01:52:44;96722.78;;;-0.19;73.32
11347;BME280;5728;42.722;23.258;2024-01-30T01:55:14;96714.25;;;-0.20;74.55
11347;BME280;5728;42.722;23.258;2024-01-30T01:57:43;96720.91;;;-0.07;74.91
11347;BME280;5728;42.722;23.258;2024-01-30T02:00:10;96724.97;;;0.04;74.42
11347;BME280;5728;42.722;23.258;2024-01-30T02:02:39;96723.31;;;0.21;74.48
11347;BME280;5728;42.722;23.258;2024-01-30T02:05:06;96725.75;;;-0.12;74.68
11347;BME280;5728;42.722;23.258;2024-01-30T02:07:34;96727.97;;;-0.03;75.28
11347;BME280;5728;42.722;23.258;2024-01-30T02:10:01;96736.06;;;0.21;74.34
11347;BME280;5728;42.722;23.258;2024-01-30T02:12:29;96735.66;;;0.44;73.71
11347;BME280;5728;42.722;23.258;2024-01-30T02:14:56;96728.94;;;0.30;74.97
11347;BME280;5728;42.722;23.258;2024-01-30T02:17:23;96722.13;;;0.30;74.19
11347;BME280;5728;42.722;23.258;2024-01-30T02:19:50;96732.81;;;0.23;74.63
11347;BME280;5728;42.722;23.258;2024-01-30T02:22:19;96721.84;;;0.40;75.57
11347;BME280;5728;42.722;23.258;2024-01-30T02:24:46;96723.91;;;0.31;73.97
11347;BME280;5728;42.722;23.258;2024-01-30T02:27:13;96724.69;;;0.30;72.00
11347;BME280;5728;42.722;23.258;2024-01-30T02:29:40;96726.41;;;0.46;72.11
11347;BME280;5728;42.722;23.258;2024-01-30T02:32:07;96717.56;;;0.39;71.07
11347;BME280;5728;42.722;23.258;2024-01-30T02:34:34;96721.19;;;0.28;72.52
11347;BME280;5728;42.722;23.258;2024-01-30T02:37:01;96713.53;;;0.28;74.44
11347;BME280;5728;42.722;23.258;2024-01-30T02:39:29;96713.00;;;0.34;74.25
11347;BME280;5728;42.722;23.258;2024-01-30T02:41:56;96719.19;;;0.70;74.43
11347;BME280;5728;42.722;23.258;2024-01-30T02:44:23;96719.16;;;0.37;73.93
11347;BME280;5728;42.722;23.258;2024-01-30T02:46:50;96724.28;;;0.70;72.37
11347;BME280;5728;42.722;23.258;2024-01-30T02:49:19;96721.34;;;0.94;71.15
11347;BME280;5728;42.722;23.258;2024-01-30T02:51:46;96725.06;;;0.69;71.63
11347;BME280;5728;42.722;23.258;2024-01-30T02:54:13;96720.94;;;0.54;71.21
11347;BME280;5728;42.722;23.258;2024-01-30T02:56:42;96732.53;;;0.33;71.98
11347;BME280;5728;42.722;23.258;2024-01-30T02:59:08;96724.25;;;0.37;71.57
11347;BME280;5728;42.722;23.258;2024-01-30T03:01:42;96724.25;;;0.37;71.82
11347;BME280;5728;42.722;23.258;2024-01-30T03:04:09;96726.53;;;0.33;71.40
11347;BME280;5728;42.722;23.258;2024-01-30T03:06:36;96717.03;;;0.30;70.54
11347;BME280;5728;42.722;23.258;2024-01-30T03:09:03;96711.41;;;0.36;72.27
11347;BME280;5728;42.722;23.258;2024-01-30T03:11:30;96720.28;;;0.42;72.05
11347;BME280;5728;42.722;23.258;2024-01-30T03:13:59;96706.59;;;0.26;70.66
11347;BME280;5728;42.722;23.258;2024-01-30T03:16:26;96714.00;;;0.52;69.36
11347;BME280;5728;42.722;23.258;2024-01-30T03:18:53;96718.03;;;0.48;69.37
11347;BME280;5728;42.722;23.258;2024-01-30T03:21:19;96712.63;;;0.12;70.31
11347;BME280;5728;42.722;23.258;2024-01-30T03:23:47;96714.47;;;0.14;70.19
11347;BME280;5728;42.722;23.258;2024-01-30T03:26:14;96707.06;;;0.19;69.66
11347;BME280;5728;42.722;23.258;2024-01-30T03:28:41;96706.84;;;0.30;69.84
11347;BME280;5728;42.722;23.258;2024-01-30T03:31:10;96706.28;;;0.20;69.28
11347;BME280;5728;42.722;23.258;2024-01-30T03:33:36;96707.38;;;-0.06;69.43
11347;BME280;5728;42.722;23.258;2024-01-30T03:36:05;96710.28;;;0.00;68.89
11347;BME280;5728;42.722;23.258;2024-01-30T03:38:32;96700.16;;;0.02;68.75
11347;BME280;5728;42.722;23.258;2024-01-30T03:40:59;96701.59;;;-0.04;69.03
11347;BME280;5728;42.722;23.258;2024-01-30T03:43:26;96703.06;;;-0.07;69.88
11347;BME280;5728;42.722;23.258;2024-01-30T03:45:53;96708.69;;;0.02;69.07
11347;BME280;5728;42.722;23.258;2024-01-30T03:48:22;96697.13;;;-0.08;69.69
11347;BME280;5728;42.722;23.258;2024-01-30T03:50:49;96693.47;;;0.04;68.98
11347;BME280;5728;42.722;23.258;2024-01-30T03:53:15;96700.28;;;-0.12;69.62
11347;BME280;5728;42.722;23.258;2024-01-30T03:55:42;96700.09;;;0.00;69.60
11347;BME280;5728;42.722;23.258;2024-01-30T03:58:09;96690.78;;;-0.14;69.33
11347;BME280;5728;42.722;23.258;2024-01-30T04:00:36;96697.84;;;-0.10;69.73
11347;BME280;5728;42.722;23.258;2024-01-30T04:03:04;96693.06;;;0.27;68.71
11347;BME280;5728;42.722;23.258;2024-01-30T04:05:32;96687.22;;;-0.18;69.80
11347;BME280;5728;42.722;23.258;2024-01-30T04:07:59;96694.81;;;-0.03;69.52
11347;BME280;5728;42.722;23.258;2024-01-30T04:10:28;96689.38;;;-0.09;69.13
11347;BME280;5728;42.722;23.258;2024-01-30T04:12:55;96688.16;;;0.15;68.41
11347;BME280;5728;42.722;23.258;2024-01-30T04:15:22;96685.00;;;0.35;66.98
11347;BME280;5728;42.722;23.258;2024-01-30T04:17:49;96687.72;;;0.22;68.24
11347;BME280;5728;42.722;23.258;2024-01-30T04:20:16;96687.66;;;0.37;67.84
11347;BME280;5728;42.722;23.258;2024-01-30T04:22:45;96687.66;;;0.06;68.44
11347;BME280;5728;42.722;23.258;2024-01-30T04:25:12;96689.91;;;0.16;68.22
11347;BME280;5728;42.722;23.258;2024-01-30T04:27:39;96692.22;;;0.12;68.50
11347;BME280;5728;42.722;23.258;2024-01-30T04:30:07;96706.44;;;-0.08;69.67
11347;BME280;5728;42.722;23.258;2024-01-30T04:32:35;96705.63;;;-0.07;69.47
11347;BME280;5728;42.722;23.258;2024-01-30T04:35:03;96703.25;;;-0.04;69.80
11347;BME280;5728;42.722;23.258;2024-01-30T04:37:30;96701.16;;;-0.11;68.84
11347;BME280;5728;42.722;23.258;2024-01-30T04:39:59;96698.00;;;-0.22;68.43
11347;BME280;5728;42.722;23.258;2024-01-30T04:42:26;96700.31;;;-0.26;69.28
11347;BME280;5728;42.722;23.258;2024-01-30T04:44:52;96707.00;;;-0.28;69.47
11347;BME280;5728;42.722;23.258;2024-01-30T04:47:20;96708.56;;;-0.59;70.15
11347;BME280;5728;42.722;23.258;2024-01-30T04:49:47;96715.34;;;-0.31;70.69
11347;BME280;5728;42.722;23.258;2024-01-30T04:52:14;96722.59;;;-0.22;70.85
11347;BME280;5728;42.722;23.258;2024-01-30T04:54:41;96705.41;;;-0.41;69.61
11347;BME280;5728;42.722;23.258;2024-01-30T04:57:09;96721.56;;;-0.55;70.52
11347;BME280;5728;42.722;23.258;2024-01-30T04:59:37;96724.28;;;-0.37;71.88
11347;BME280;5728;42.722;23.258;2024-01-30T05:02:04;96729.22;;;-0.26;71.13
11347;BME280;5728;42.722;23.258;2024-01-30T05:04:32;96724.84;;;-0.28;71.69
11347;BME280;5728;42.722;23.258;2024-01-30T05:06:59;96732.25;;;-0.02;71.48
11347;BME280;5728;42.722;23.258;2024-01-30T05:09:26;96725.59;;;0.00;70.70
11347;BME280;5728;42.722;23.258;2024-01-30T05:11:53;96733.91;;;0.12;69.85
11347;BME280;5728;42.722;23.258;2024-01-30T05:14:21;96732.25;;;-0.02;70.22
11347;BME280;5728;42.722;23.258;2024-01-30T05:16:48;96731.19;;;0.09;70.23
11347;BME280;5728;42.722;23.258;2024-01-30T05:19:15;96739.78;;;0.11;69.99
11347;BME280;5728;42.722;23.258;2024-01-30T05:21:42;96733.19;;;-0.45;70.58
11347;BME280;5728;42.722;23.258;2024-01-30T05:24:09;96732.91;;;-0.65;71.11
11347;BME280;5728;42.722;23.258;2024-01-30T05:26:36;96740.72;;;-0.61;72.60
11347;BME280;5728;42.722;23.258;2024-01-30T05:29:06;96745.66;;;-0.50;71.59
11347;BME280;5728;42.722;23.258;2024-01-30T05:31:34;96736.66;;;-0.73;70.91
11347;BME280;5728;42.722;23.258;2024-01-30T05:34:01;96740.09;;;-0.57;71.04
11347;BME280;5728;42.722;23.258;2024-01-30T05:36:28;96743.34;;;-0.60;71.29
11347;BME280;5728;42.722;23.258;2024-01-30T05:38:56;96743.72;;;-0.83;71.30
11347;BME280;5728;42.722;23.258;2024-01-30T05:41:23;96740.03;;;-0.74;71.65
11347;BME280;5728;42.722;23.258;2024-01-30T05:43:49;96743.00;;;-0.81;72.22
11347;BME280;5728;42.722;23.258;2024-01-30T05:46:16;96734.41;;;-0.68;71.89
11347;BME280;5728;42.722;23.258;2024-01-30T05:48:45;96737.03;;;-0.67;71.77
11347;BME280;5728;42.722;23.258;2024-01-30T05:51:12;96740.34;;;-0.97;71.92
11347;BME280;5728;42.722;23.258;2024-01-30T05:53:39;96740.03;;;-0.74;71.72
11347;BME280;5728;42.722;23.258;2024-01-30T05:56:06;96733.16;;;-0.75;71.47
11347;BME280;5728;42.722;23.258;2024-01-30T05:58:34;96726.47;;;-0.87;72.17
11347;BME280;5728;42.722;23.258;2024-01-30T06:01:03;96737.16;;;-0.93;72.10
11347;BME280;5728;42.722;23.258;2024-01-30T06:03:29;96739.13;;;-0.89;72.67
11347;BME280;5728;42.722;23.258;2024-01-30T06:05:58;96740.72;;;-0.91;72.24
11347;BME280;5728;42.722;23.258;2024-01-30T06:08:25;96741.72;;;-1.02;72.49
11347;BME280;5728;42.722;23.258;2024-01-30T06:10:52;96740.88;;;-0.88;72.26
11347;BME280;5728;42.722;23.258;2024-01-30T06:13:20;96748.81;;;-0.83;72.86
11347;BME280;5728;42.722;23.258;2024-01-30T06:15:47;96745.91;;;-0.75;71.83
11347;BME280;5728;42.722;23.258;2024-01-30T06:18:14;96739.47;;;-0.83;72.39
11347;BME280;5728;42.722;23.258;2024-01-30T06:20:40;96737.16;;;-0.93;72.16
11347;BME280;5728;42.722;23.258;2024-01-30T06:23:09;96738.41;;;-1.01;72.06
11347;BME280;5728;42.722;23.258;2024-01-30T06:25:36;96740.03;;;-0.74;71.98
11347;BME280;5728;42.722;23.258;2024-01-30T06:28:03;96739.13;;;-0.89;71.91
11347;BME280;5728;42.722;23.258;2024-01-30T06:30:30;96740.28;;;-0.69;71.80
11347;BME280;5728;42.722;23.258;2024-01-30T06:32:57;96747.94;;;-0.69;71.11
11347;BME280;5728;42.722;23.258;2024-01-30T06:35:24;96742.31;;;-0.63;70.64
11347;BME280;5728;42.722;23.258;2024-01-30T06:37:51;96745.94;;;-0.45;70.52
11347;BME280;5728;42.722;23.258;2024-01-30T06:40:19;96744.50;;;-0.55;70.53
11347;BME280;5728;42.722;23.258;2024-01-30T06:42:46;96741.09;;;-0.41;71.63
11347;BME280;5728;42.722;23.258;2024-01-30T06:45:13;96739.56;;;-0.08;69.72
11347;BME280;5728;42.722;23.258;2024-01-30T06:47:41;96744.94;;;-0.18;69.49
11347;BME280;5728;42.722;23.258;2024-01-30T06:50:08;96743.34;;;-0.02;69.11
11347;BME280;5728;42.722;23.258;2024-01-30T06:52:35;96742.69;;;0.17;70.30
11347;BME280;5728;42.722;23.258;2024-01-30T06:55:02;96744.91;;;0.11;67.92
11347;BME280;5728;42.722;23.258;2024-01-30T06:57:31;96742.59;;;0.46;66.79
11347;BME280;5728;42.722;23.258;2024-01-30T06:59:57;96757.31;;;0.67;66.58
11347;BME280;5728;42.722;23.258;2024-01-30T07:02:25;96748.94;;;0.69;66.43
11347;BME280;5728;42.722;23.258;2024-01-30T07:04:51;96747.06;;;0.97;66.14
11347;BME280;5728;42.722;23.258;2024-01-30T07:07:19;96755.03;;;1.19;64.86
11347;BME280;5728;42.722;23.258;2024-01-30T07:09:46;96753.31;;;1.36;64.24
11347;BME280;5728;42.722;23.258;2024-01-30T07:12:15;96751.69;;;1.54;63.52
11347;BME280;5728;42.722;23.258;2024-01-30T07:14:43;96748.06;;;1.33;62.97
11347;BME280;5728;42.722;23.258;2024-01-30T07:17:10;96764.69;;;1.25;64.84
11347;BME280;5728;42.722;23.258;2024-01-30T07:19:37;96738.25;;;1.24;64.70
11347;BME280;5728;42.722;23.258;2024-01-30T07:22:04;96746.47;;;0.87;64.45
11347;BME280;5728;42.722;23.258;2024-01-30T07:24:31;96758.63;;;1.07;63.92
11347;BME280;5728;42.722;23.258;2024-01-30T07:26:58;96755.09;;;1.21;62.17
11347;BME280;5728;42.722;23.258;2024-01-30T07:29:25;96753.66;;;1.26;62.28
11347;BME280;5728;42.722;23.258;2024-01-30T07:31:53;96751.47;;;1.50;62.37
11347;BME280;5728;42.722;23.258;2024-01-30T07:34:20;96753.31;;;1.36;62.10
11347;BME280;5728;42.722;23.258;2024-01-30T07:36:47;96758.19;;;1.48;60.31
11347;BME280;5728;42.722;23.258;2024-01-30T07:39:14;96745.25;;;1.78;60.37
11347;BME280;5728;42.722;23.258;2024-01-30T07:41:41;96748.94;;;2.01;60.71
11347;BME280;5728;42.722;23.258;2024-01-30T07:44:08;96743.09;;;2.21;58.80
11347;BME280;5728;42.722;23.258;2024-01-30T07:46:35;96749.22;;;2.25;58.99
11347;BME280;5728;42.722;23.258;2024-01-30T07:49:04;96747.38;;;2.40;57.95
11347;BME280;5728;42.722;23.258;2024-01-30T07:51:31;96738.38;;;2.66;57.26
11347;BME280;5728;42.722;23.258;2024-01-30T07:53:58;96738.53;;;2.51;57.40
11347;BME280;5728;42.722;23.258;2024-01-30T07:56:24;96737.63;;;2.68;55.92
11347;BME280;5728;42.722;23.258;2024-01-30T07:58:52;96750.97;;;2.61;55.94
11347;BME280;5728;42.722;23.258;2024-01-30T08:01:19;96743.03;;;2.74;58.15
11347;BME280;5728;42.722;23.258;2024-01-30T08:03:46;96729.00;;;2.66;56.09
11347;BME280;5728;42.722;23.258;2024-01-30T08:06:14;96733.06;;;2.80;56.51
11347;BME280;5728;42.722;23.258;2024-01-30T08:08:41;96739.50;;;3.09;55.40
11347;BME280;5728;42.722;23.258;2024-01-30T08:11:08;96746.16;;;3.05;55.55
11347;BME280;5728;42.722;23.258;2024-01-30T08:13:35;96740.50;;;3.32;55.02
11347;BME280;5728;42.722;23.258;2024-01-30T08:16:03;96732.25;;;3.00;53.56
11347;BME280;5728;42.722;23.258;2024-01-30T08:18:30;96744.47;;;3.06;56.17
11347;BME280;5728;42.722;23.258;2024-01-30T08:20:57;96741.03;;;3.05;56.04
11347;BME280;5728;42.722;23.258;2024-01-30T08:23:25;96739.81;;;3.55;54.91
11347;BME280;5728;42.722;23.258;2024-01-30T08:25:52;96748.47;;;3.58;55.21
11347;BME280;5728;42.722;23.258;2024-01-30T08:28:19;96739.44;;;3.66;53.15
11347;BME280;5728;42.722;23.258;2024-01-30T08:30:46;96736.16;;;3.70;54.96
11347;BME280;5728;42.722;23.258;2024-01-30T08:33:13;96743.84;;;4.10;54.31
11347;BME280;5728;42.722;23.258;2024-01-30T08:35:40;96748.59;;;4.01;53.61
11347;BME280;5728;42.722;23.258;2024-01-30T08:38:08;96742.88;;;4.29;52.54
11347;BME280;5728;42.722;23.258;2024-01-30T08:40:36;96746.06;;;4.23;51.69
11347;BME280;5728;42.722;23.258;2024-01-30T08:43:03;96740.38;;;4.30;52.51
11347;BME280;5728;42.722;23.258;2024-01-30T08:45:30;96757.84;;;4.18;55.15
11347;BME280;5728;42.722;23.258;2024-01-30T08:47:57;96754.13;;;4.10;52.81
11347;BME280;5728;42.722;23.258;2024-01-30T08:50:24;96751.50;;;4.74;51.89
11347;BME280;5728;42.722;23.258;2024-01-30T08:52:51;96758.00;;;4.43;52.35
11347;BME280;5728;42.722;23.258;2024-01-30T08:55:18;96752.72;;;4.18;53.53
11347;BME280;5728;42.722;23.258;2024-01-30T08:57:47;96766.47;;;3.79;54.07
11347;BME280;5728;42.722;23.258;2024-01-30T09:00:14;96761.97;;;3.14;54.23
11347;BME280;5728;42.722;23.258;2024-01-30T09:02:41;96761.72;;;2.54;57.20
11347;BME280;5728;42.722;23.258;2024-01-30T09:05:09;96769.03;;;2.64;58.96
11347;BME280;5728;42.722;23.258;2024-01-30T09:07:36;96770.97;;;2.70;58.20
11347;BME280;5728;42.722;23.258;2024-01-30T09:10:04;96770.72;;;2.64;57.70
11347;BME280;5728;42.722;23.258;2024-01-30T09:12:31;96760.38;;;2.99;57.85
11347;BME280;5728;42.722;23.258;2024-01-30T09:14:59;96763.97;;;3.41;55.90
11347;BME280;5728;42.722;23.258;2024-01-30T09:17:26;96758.03;;;3.42;56.86
11347;BME280;5728;42.722;23.258;2024-01-30T09:19:53;96765.47;;;3.16;57.23
11347;BME280;5728;42.722;23.258;2024-01-30T09:22:20;96763.69;;;2.96;56.94
11347;BME280;5728;42.722;23.258;2024-01-30T09:24:47;96762.81;;;3.15;57.43
11347;BME280;5728;42.722;23.258;2024-01-30T09:27:14;96761.06;;;3.73;55.59
11347;BME280;5728;42.722;23.258;2024-01-30T09:29:41;96742.56;;;4.21;54.62
11347;BME280;5728;42.722;23.258;2024-01-30T09:32:10;96751.63;;;4.77;53.36
11347;BME280;5728;42.722;23.258;2024-01-30T09:34:37;96755.00;;;4.98;51.45
11347;BME280;5728;42.722;23.258;2024-01-30T09:37:04;96747.38;;;5.23;50.07
11347;BME280;5728;42.722;23.258;2024-01-30T09:39:31;96739.69;;;4.79;51.29
11347;BME280;5728;42.722;23.258;2024-01-30T09:42:04;96751.34;;;4.06;50.79
11347;BME280;5728;42.722;23.258;2024-01-30T09:44:34;96742.97;;;4.10;51.32
11347;BME280;5728;42.722;23.258;2024-01-30T09:47:02;96747.72;;;4.43;51.53
11347;BME280;5728;42.722;23.258;2024-01-30T09:49:33;96731.50;;;4.89;50.51
11347;BME280;5728;42.722;23.258;2024-01-30T09:52:00;96736.53;;;5.08;51.42
11347;BME280;5728;42.722;23.258;2024-01-30T09:54:29;96733.38;;;5.15;49.22
11347;BME280;5728;42.722;23.258;2024-01-30T09:56:57;96737.16;;;4.36;50.01
11347;BME280;5728;42.722;23.258;2024-01-30T09:59:23;96734.97;;;4.02;50.96
11347;BME280;5728;42.722;23.258;2024-01-30T10:01:51;96726.34;;;3.60;52.53
11347;BME280;5728;42.722;23.258;2024-01-30T10:04:17;96732.66;;;3.29;52.54
11347;BME280;5728;42.722;23.258;2024-01-30T10:06:46;96729.97;;;3.06;53.93
11347;BME280;5728;42.722;23.258;2024-01-30T10:09:14;96723.38;;;3.11;56.08
11347;BME280;5728;42.722;23.258;2024-01-30T10:11:41;96727.91;;;3.57;54.31
11347;BME280;5728;42.722;23.258;2024-01-30T10:14:08;96720.19;;;4.39;53.45
11347;BME280;5728;42.722;23.258;2024-01-30T10:16:35;96719.25;;;4.82;51.39
11347;BME280;5728;42.722;23.258;2024-01-30T10:19:02;96721.88;;;4.61;50.05
11347;BME280;5728;42.722;23.258;2024-01-30T10:21:29;96713.53;;;4.67;51.29
11347;BME280;5728;42.722;23.258;2024-01-30T10:23:58;96723.31;;;4.99;49.83
11347;BME280;5728;42.722;23.258;2024-01-30T10:26:25;96722.13;;;5.37;49.93
11347;BME280;5728;42.722;23.258;2024-01-30T10:28:54;96713.56;;;5.85;48.12
11347;BME280;5728;42.722;23.258;2024-01-30T10:31:21;96716.22;;;6.40;46.60
11347;BME280;5728;42.722;23.258;2024-01-30T10:33:49;96712.63;;;5.58;46.70
11347;BME280;5728;42.722;23.258;2024-01-30T10:36:17;96720.47;;;5.62;47.44
11347;BME280;5728;42.722;23.258;2024-01-30T10:38:45;96719.25;;;5.76;47.86
11347;BME280;5728;42.722;23.258;2024-01-30T10:41:20;96715.19;;;5.58;49.16
11347;BME280;5728;42.722;23.258;2024-01-30T10:43:58;96714.75;;;5.95;46.99
11347;BME280;5728;42.722;23.258;2024-01-30T10:46:31;96699.50;;;6.01;46.28
11347;BME280;5728;42.722;23.258;2024-01-30T10:48:59;96696.50;;;6.40;46.86
11347;BME280;5728;42.722;23.258;2024-01-30T10:51:28;96707.84;;;6.74;44.32
11347;BME280;5728;42.722;23.258;2024-01-30T10:53:56;96702.47;;;6.94;45.20
11347;BME280;5728;42.722;23.258;2024-01-30T10:56:25;96690.81;;;7.08;43.79
11347;BME280;5728;42.722;23.258;2024-01-30T10:58:52;96688.09;;;7.34;43.50
11347;BME280;5728;42.722;23.258;2024-01-30T11:01:22;96684.41;;;7.26;42.88
11347;BME280;5728;42.722;23.258;2024-01-30T11:03:50;96696.13;;;6.85;43.75
11347;BME280;5728;42.722;23.258;2024-01-30T11:06:18;96692.06;;;6.63;45.22
11347;BME280;5728;42.722;23.258;2024-01-30T11:08:45;96688.13;;;7.04;46.51
11347;BME280;5728;42.722;23.258;2024-01-30T11:11:12;96681.88;;;6.68;45.34
11347;BME280;5728;42.722;23.258;2024-01-30T11:13:41;96673.94;;;7.20;44.14
11347;BME280;5728;42.722;23.258;2024-01-30T11:16:11;96676.16;;;7.07;44.52
11347;BME280;5728;42.722;23.258;2024-01-30T11:18:38;96673.56;;;7.06;43.94
11347;BME280;5728;42.722;23.258;2024-01-30T11:21:05;96665.78;;;7.36;43.19
11347;BME280;5728;42.722;23.258;2024-01-30T11:23:33;96675.72;;;6.92;44.04
11347;BME280;5728;42.722;23.258;2024-01-30T11:26:01;96668.13;;;6.39;44.92
11347;BME280;5728;42.722;23.258;2024-01-30T11:28:32;96676.59;;;5.34;47.21
11347;BME280;5728;42.722;23.258;2024-01-30T11:31:04;96667.81;;;5.28;48.26
11347;BME280;5728;42.722;23.258;2024-01-30T11:33:32;96663.13;;;5.66;48.87
11347;BME280;5728;42.722;23.258;2024-01-30T11:36:00;96662.28;;;5.66;47.79
11347;BME280;5728;42.722;23.258;2024-01-30T11:38:28;96669.53;;;5.77;48.33
11347;BME280;5728;42.722;23.258;2024-01-30T11:40:55;96670.34;;;5.76;49.57
11347;BME280;5728;42.722;23.258;2024-01-30T11:43:23;96670.03;;;5.91;49.62
11347;BME280;5728;42.722;23.258;2024-01-30T11:45:50;96656.25;;;6.17;47.56
11347;BME280;5728;42.722;23.258;2024-01-30T11:48:19;96661.50;;;5.68;49.23
11347;BME280;5728;42.722;23.258;2024-01-30T11:50:46;96658.72;;;5.62;48.55
11347;BME280;5728;42.722;23.258;2024-01-30T11:53:13;96669.34;;;4.99;49.04
11347;BME280;5728;42.722;23.258;2024-01-30T11:55:40;96669.31;;;4.97;50.52
11347;BME280;5728;42.722;23.258;2024-01-30T11:58:07;96660.03;;;5.26;49.31
11347;BME280;5728;42.722;23.258;2024-01-30T12:00:34;96655.09;;;5.32;48.81
11347;BME280;5728;42.722;23.258;2024-01-30T12:03:01;96648.94;;;5.27;49.41
11347;BME280;5728;42.722;23.258;2024-01-30T12:05:30;96643.53;;;5.95;49.42
11347;BME280;5728;42.722;23.258;2024-01-30T12:07:57;96639.13;;;6.46;47.77
11347;BME280;5728;42.722;23.258;2024-01-30T12:10:25;96620.09;;;7.00;45.95
11347;BME280;5728;42.722;23.258;2024-01-30T12:12:53;96625.44;;;7.06;45.85
11347;BME280;5728;42.722;23.258;2024-01-30T12:15:21;96620.72;;;7.56;45.53
11347;BME280;5728;42.722;23.258;2024-01-30T12:17:49;96621.50;;;7.52;43.13
11347;BME280;5728;42.722;23.258;2024-01-30T12:20:18;96618.19;;;7.57;43.57
11347;BME280;5728;42.722;23.258;2024-01-30T12:22:48;96617.06;;;7.48;43.86
11347;BME280;5728;42.722;23.258;2024-01-30T12:25:17;96611.31;;;7.25;43.63
11347;BME280;5728;42.722;23.258;2024-01-30T12:27:45;96612.13;;;6.93;44.18
11347;BME280;5728;42.722;23.258;2024-01-30T12:30:16;96616.19;;;6.85;44.94
11347;BME280;5728;42.722;23.258;2024-01-30T12:32:44;96613.03;;;6.64;45.64
11347;BME280;5728;42.722;23.258;2024-01-30T12:35:11;96607.59;;;7.16;44.85
11347;BME280;5728;42.722;23.258;2024-01-30T12:37:39;96606.31;;;7.64;43.84
11347;BME280;5728;42.722;23.258;2024-01-30T12:40:08;96602.72;;;8.27;42.76
11347;BME280;5728;42.722;23.258;2024-01-30T12:42:36;96605.38;;;8.71;41.22
11347;BME280;5728;42.722;23.258;2024-01-30T12:45:04;96604.13;;;8.54;42.30
11347;BME280;5728;42.722;23.258;2024-01-30T12:47:32;96600.63;;;8.14;41.25
11347;BME280;5728;42.722;23.258;2024-01-30T12:49:59;96600.88;;;8.61;41.10
11347;BME280;5728;42.722;23.258;2024-01-30T12:52:26;96595.06;;;8.33;42.14
11347;BME280;5728;42.722;23.258;2024-01-30T12:54:53;96601.50;;;8.51;41.21
11347;BME280;5728;42.722;23.258;2024-01-30T12:57:22;96588.88;;;7.90;41.82
11347;BME280;5728;42.722;23.258;2024-01-30T12:59:49;96598.75;;;8.07;41.78
11347;BME280;5728;42.722;23.258;2024-01-30T13:02:16;96588.44;;;8.07;42.01
11347;BME280;5728;42.722;23.258;2024-01-30T13:04:43;96583.50;;;8.55;40.85
11347;BME280;5728;42.722;23.258;2024-01-30T13:07:10;96568.56;;;8.84;41.34
11347;BME280;5728;42.722;23.258;2024-01-30T13:09:37;96576.41;;;8.47;40.35